KGGW/GGW METAR and TAF weather

Enter ICAO airport designator
Station Type Date Time Source
KGGW METAR 2021/05/11 15:53 UTC NOAA

KGGW 111553Z AUTO 14008KT 10SM CLR 13/01 A3023 RMK AO2 SLP244 T01280006


Station Type Date Time Source
KGGW Decoded METAR 2021/05/11 15:53 UTC NOAA

GLASGOW INTERNATIONAL AIRPORT , MT, United States (KGGW) 48-13N 106-37W 693M
May 11, 2021 - 11:53 AM EDT / 2021.05.11 1553 UTC
Wind: from the SE (140 degrees) at 9 MPH (8 KT):0
Visibility: 10 mile(s):0
Sky conditions: clear
Temperature: 55.0 F (12.8 C)
Dew Point: 33.1 F (0.6 C)
Relative Humidity: 43%
Pressure (altimeter): 30.23 in. Hg (1023 hPa)
ob: KGGW 111553Z AUTO 14008KT 10SM CLR 13/01 A3023 RMK AO2 SLP244 T01280006
cycle: 16

Station Type Date Time Source
KGGW TAF 2021/05/11 12:33 UTC NOAA

TAF KGGW 111131Z 1112/1212 VRB06KT P6SM SCT120
FM111800 14011KT P6SM FEW180

Example: see airport list